Time;durP1;ratioP1;P1;durP2;ratioP2;P2;SDS_P1;SDS_P2;PMS_P1;PMS_P2;Temp;Humidity;BMP_temperature;BMP_pressure;BME280_temperature;BME280_humidity;BME280_pressure;Samples;Min_cycle;Max_cycle;Signal;HPM_P1;HPM_P2
2022/11/23 00:00:36;;;;;;;;;;;;;;;;;;2055912;28;19969;-90
2022/11/23 00:01:37;;;;;;;;;;;;;;;;;;2047444;28;19970;-90
2022/11/23 00:02:37;;;;;;;;;;;;;;;;;;2055419;28;20053;-90
2022/11/23 00:03:37;;;;;;;;;;;;;;;;;;2056136;28;19910;-90
2022/11/23 00:04:38;;;;;;;;;;;;;;;;;;2055459;28;19918;-90
2022/11/23 00:05:38;;;;;;;;;;;;;;;;;;2056418;28;19994;-88
2022/11/23 00:06:39;;;;;;;;;;;;;;;;;;2060393;28;19921;-88
2022/11/23 00:07:39;;;;;;;;;;;;;;;;;;2061584;28;20080;-88
2022/11/23 00:08:39;;;;;;;;;;;;;;;;;;2069855;28;19909;-89
2022/11/23 00:09:40;;;;;;;;;;;;;;;;;;2062455;28;20004;-86
2022/11/23 00:10:40;;;;;;;;;;;;;;;;;;2063410;28;19921;-87
2022/11/23 00:11:41;;;;;;;;;;;;;;;;;;2062763;28;19917;-86
2022/11/23 00:12:42;;;;;;;;;;;;;;;;;;2063576;28;19982;-88
2022/11/23 00:13:43;;;;;;;;;;;;;;;;;;2072052;28;19910;-87
2022/11/23 00:14:43;;;;;;;;;;;;;;;;;;2066386;28;19917;-89
2022/11/23 00:15:44;;;;;;;;;;;;;;;;;;2065672;28;20400;-87
2022/11/23 00:16:44;;;;;;;;;;;;;;;;;;2066195;28;19997;-87
2022/11/23 00:17:46;;;;;;;;;;;;;;;;;;2066971;28;20407;-87
2022/11/23 00:18:46;;;;;;;;;;;;;;;;;;2059105;28;19949;-89
2022/11/23 00:19:46;;;;;;;;;;;;;;;;;;2055935;28;20392;-88
2022/11/23 00:20:47;;;;;;;;;;;;;;;;;;2065118;28;19910;-89
2022/11/23 00:21:47;;;;;;;;;;;;;;;;;;2056101;28;19996;-89
2022/11/23 00:22:47;;;;;;;;;;;;;;;;;;2055784;28;19917;-89
2022/11/23 00:23:48;;;;;;;;;;;;;;;;;;2055108;28;19946;-89
2022/11/23 00:24:48;;;;;;;;;;;;;;;;;;2047453;29;19918;-89
2022/11/23 00:25:48;;;;;;;;;;;;;;;;;;2047148;29;20038;-89
2022/11/23 00:26:48;;;;;;;;;;;;;;;;;;2055652;28;19910;-89
2022/11/23 00:27:49;;;;;;;;;;;;;;;;;;2064493;28;20235;-88
2022/11/23 00:28:50;;;;;;;;;;;;;;;;;;2063927;28;19996;-88
2022/11/23 00:29:50;;;;;;;;;;;;;;;;;;2065047;28;19964;-87
2022/11/23 00:30:51;;;;;;;;;;;;;;;;;;2055969;28;19978;-89
2022/11/23 00:31:51;;;;;;;;;;;;;;;;;;2055148;28;19910;-88
2022/11/23 00:32:52;;;;;;;;;;;;;;;;;;2064150;28;19933;-88
2022/11/23 00:33:55;;;;;;;;;;;;;;;;;;2064274;28;20409;-88
2022/11/23 00:34:55;;;;;;;;;;;;;;;;;;2064173;28;19974;-88
2022/11/23 00:36:02;;;;;;;;;;;;;;;;;;2055282;28;19930;-89
2022/11/23 00:37:03;;;;;;;;;;;;;;;;;;1689233;28;10200346;-90
2022/11/23 00:38:03;;;;;;;;;;;;;;;;;;2063373;28;20369;-89
2022/11/23 00:39:03;;;;;;;;;;;;;;;;;;2055383;28;19917;-91
2022/11/23 00:40:06;;;;;;;;;;;;;;;;;;2055359;28;19941;-90
2022/11/23 00:41:10;;;;;;;;;;;;;;;;;;2063993;28;19909;-90
2022/11/23 00:42:11;;;;;;;;;;;;;;;;;;2063848;28;20281;-90
2022/11/23 00:43:11;;;;;;;;;;;;;;;;;;2063834;28;20221;-90
2022/11/23 00:44:11;;;;;;;;;;;;;;;;;;2055045;28;19962;-90
2022/11/23 00:45:12;;;;;;;;;;;;;;;;;;2047127;28;20005;-90
2022/11/23 00:46:13;;;;;;;;;;;;;;;;;;1703009;28;10082895;-91
2022/11/23 00:47:13;;;;;;;;;;;;;;;;;;2047721;28;19997;-89
2022/11/23 00:48:14;;;;;;;;;;;;;;;;;;2047565;29;20385;-90
2022/11/23 00:49:14;;;;;;;;;;;;;;;;;;2048122;29;20406;-89
2022/11/23 00:50:15;;;;;;;;;;;;;;;;;;2060945;28;19910;-88
2022/11/23 00:51:16;;;;;;;;;;;;;;;;;;2060423;28;19977;-89
2022/11/23 00:52:16;;;;;;;;;;;;;;;;;;2054412;28;19917;-89
2022/11/23 00:53:17;;;;;;;;;;;;;;;;;;2052094;29;19953;-89
2022/11/23 00:54:17;;;;;;;;;;;;;;;;;;2055447;28;19910;-90
2022/11/23 00:55:17;;;;;;;;;;;;;;;;;;2064177;28;19961;-89
2022/11/23 00:56:18;;;;;;;;;;;;;;;;;;2064194;28;19909;-89
2022/11/23 00:57:18;;;;;;;;;;;;;;;;;;2064623;28;19993;-90
2022/11/23 00:58:19;;;;;;;;;;;;;;;;;;2063406;28;19916;-89
2022/11/23 00:59:19;;;;;;;;;;;;;;;;;;2055692;28;19917;-91
2022/11/23 01:00:19;;;;;;;;;;;;;;;;;;2055824;28;19953;-90
2022/11/23 01:01:21;;;;;;;;;;;;;;;;;;2056943;28;19917;-90
2022/11/23 01:02:22;;;;;;;;;;;;;;;;;;2058208;28;20293;-90
2022/11/23 01:03:22;;;;;;;;;;;;;;;;;;2065527;28;19952;-90
2022/11/23 01:04:22;;;;;;;;;;;;;;;;;;2065381;28;19949;-88
2022/11/23 01:05:23;;;;;;;;;;;;;;;;;;2056483;28;20009;-90
2022/11/23 01:06:24;;;;;;;;;;;;;;;;;;2056604;28;20294;-91
2022/11/23 01:07:26;;;;;;;;;;;;;;;;;;2056229;28;19913;-90
2022/11/23 01:08:26;;;;;;;;;;;;;;;;;;2056548;28;19940;-91
2022/11/23 01:09:27;;;;;;;;;;;;;;;;;;2056358;28;20058;-90
2022/11/23 01:10:28;;;;;;;;;;;;;;;;;;2056328;28;19910;-90
2022/11/23 01:11:30;;;;;;;;;;;;;;;;;;2056088;28;20014;-89
2022/11/23 01:12:30;;;;;;;;;;;;;;;;;;2056700;28;19920;-91
2022/11/23 01:13:30;;;;;;;;;;;;;;;;;;2064745;28;20268;-90
2022/11/23 01:14:31;;;;;;;;;;;;;;;;;;2064582;28;20376;-91
2022/11/23 01:15:31;;;;;;;;;;;;;;;;;;2056502;28;19972;-90
2022/11/23 01:16:36;;;;;;;;;;;;;;;;;;2061806;28;19914;-90
2022/11/23 01:17:37;;;;;;;;;;;;;;;;;;2062503;28;20018;-87
2022/11/23 01:18:37;;;;;;;;;;;;;;;;;;2062600;28;19935;-88
2022/11/23 01:19:37;;;;;;;;;;;;;;;;;;2050522;28;20317;-89
2022/11/23 01:20:38;;;;;;;;;;;;;;;;;;2058206;28;19910;-90
2022/11/23 01:21:38;;;;;;;;;;;;;;;;;;2065055;28;19928;-90
2022/11/23 01:22:38;;;;;;;;;;;;;;;;;;2056710;28;19910;-90
2022/11/23 01:23:39;;;;;;;;;;;;;;;;;;2056643;28;20401;-89
2022/11/23 01:24:39;;;;;;;;;;;;;;;;;;2056498;28;20373;-88
2022/11/23 01:25:39;;;;;;;;;;;;;;;;;;2048634;28;20005;-89
2022/11/23 01:26:40;;;;;;;;;;;;;;;;;;2057080;28;19914;-90
2022/11/23 01:27:40;;;;;;;;;;;;;;;;;;2056586;28;19988;-90
2022/11/23 01:28:40;;;;;;;;;;;;;;;;;;2048771;29;19910;-89
2022/11/23 01:29:41;;;;;;;;;;;;;;;;;;2056721;28;20017;-91
2022/11/23 01:30:41;;;;;;;;;;;;;;;;;;2056682;28;19932;-90
2022/11/23 01:31:41;;;;;;;;;;;;;;;;;;2056762;28;19910;-91
2022/11/23 01:32:42;;;;;;;;;;;;;;;;;;2056618;28;20019;-89
2022/11/23 01:33:42;;;;;;;;;;;;;;;;;;2056542;28;19917;-89
2022/11/23 01:34:42;;;;;;;;;;;;;;;;;;2065525;28;19948;-89
2022/11/23 01:35:42;;;;;;;;;;;;;;;;;;2065341;28;19961;-89
2022/11/23 01:36:43;;;;;;;;;;;;;;;;;;2056517;28;20081;-90
2022/11/23 01:37:43;;;;;;;;;;;;;;;;;;2048619;28;19917;-89
2022/11/23 01:38:44;;;;;;;;;;;;;;;;;;2048648;29;20448;-89
2022/11/23 01:39:44;;;;;;;;;;;;;;;;;;1703076;28;10302061;-89
2022/11/23 01:40:44;;;;;;;;;;;;;;;;;;2064846;28;19913;-89
2022/11/23 01:41:45;;;;;;;;;;;;;;;;;;2056492;28;20321;-89
2022/11/23 01:42:56;;;;;;;;;;;;;;;;;;2056481;28;19921;-89
2022/11/23 01:43:56;;;;;;;;;;;;;;;;;;2057986;28;20005;-90
2022/11/23 01:45:17;;;;;;;;;;;;;;;;;;2056587;28;20335;-90
2022/11/23 01:46:17;;;;;;;;;;;;;;;;;;1709453;28;10001320;-90
2022/11/23 01:47:18;;;;;;;;;;;;;;;;;;2048521;28;19915;-89
2022/11/23 01:48:21;;;;;;;;;;;;;;;;;;2056700;28;20156;-89
2022/11/23 01:49:22;;;;;;;;;;;;;;;;;;2065429;28;19953;-90
2022/11/23 01:50:22;;;;;;;;;;;;;;;;;;2066212;28;20427;-90
2022/11/23 01:51:28;;;;;;;;;;;;;;;;;;2066596;28;19964;-90
2022/11/23 01:52:28;;;;;;;;;;;;;;;;;;2064382;28;19975;-89
2022/11/23 01:53:28;;;;;;;;;;;;;;;;;;2056566;28;19946;-90
2022/11/23 01:54:35;;;;;;;;;;;;;;;;;;2056663;28;19935;-90
2022/11/23 01:55:35;;;;;;;;;;;;;;;;;;2056365;28;19914;-89
2022/11/23 01:56:41;;;;;;;;;;;;;;;;;;2056547;28;19976;-90
2022/11/23 01:57:43;;;;;;;;;;;;;;;;;;2056532;28;20319;-90
2022/11/23 01:58:45;;;;;;;;;;;;;;;;;;2048698;28;19946;-90
2022/11/23 01:59:47;;;;;;;;;;;;;;;;;;2056650;28;19988;-90
2022/11/23 02:00:48;;;;;;;;;;;;;;;;;;2065472;28;20282;-90
2022/11/23 02:01:48;;;;;;;;;;;;;;;;;;2056247;28;19940;-90
2022/11/23 02:02:52;;;;;;;;;;;;;;;;;;2056908;28;19984;-89
2022/11/23 02:03:54;;;;;;;;;;;;;;;;;;2065295;28;19909;-90
2022/11/23 02:04:56;;;;;;;;;;;;;;;;;;2056605;28;20285;-90
2022/11/23 02:06:00;;;;;;;;;;;;;;;;;;2048427;28;19942;-90
2022/11/23 02:07:01;;;;;;;;;;;;;;;;;;2057016;28;19994;-90
2022/11/23 02:08:02;;;;;;;;;;;;;;;;;;2064971;28;19910;-90
2022/11/23 02:09:02;;;;;;;;;;;;;;;;;;2056295;28;20056;-90
2022/11/23 02:10:03;;;;;;;;;;;;;;;;;;1694914;28;10342598;-90
2022/11/23 02:11:11;;;;;;;;;;;;;;;;;;1896798;28;10214171;-90
2022/11/23 02:12:12;;;;;;;;;;;;;;;;;;2056447;28;20298;-89
2022/11/23 02:13:12;;;;;;;;;;;;;;;;;;2056376;28;19910;-90
2022/11/23 02:14:13;;;;;;;;;;;;;;;;;;2048302;28;20086;-89
2022/11/23 02:15:13;;;;;;;;;;;;;;;;;;2048401;28;19910;-90
2022/11/23 02:16:14;;;;;;;;;;;;;;;;;;2048350;28;20421;-90
2022/11/23 02:17:15;;;;;;;;;;;;;;;;;;2048247;28;19969;-90
2022/11/23 02:18:18;;;;;;;;;;;;;;;;;;2056347;28;19918;-90
2022/11/23 02:19:28;;;;;;;;;;;;;;;;;;2056226;28;19910;-90
2022/11/23 02:20:28;;;;;;;;;;;;;;;;;;2057591;28;19917;-89
2022/11/23 02:21:29;;;;;;;;;;;;;;;;;;2064744;28;19941;-90
2022/11/23 02:22:37;;;;;;;;;;;;;;;;;;2064775;28;19921;-90
2022/11/23 02:23:46;;;;;;;;;;;;;;;;;;2056082;28;20104;-90
2022/11/23 02:24:49;;;;;;;;;;;;;;;;;;2057498;28;19917;-90
2022/11/23 02:25:57;;;;;;;;;;;;;;;;;;2064630;28;19913;-90
2022/11/23 02:27:06;;;;;;;;;;;;;;;;;;1928852;28;10328210;-90
2022/11/23 02:28:07;;;;;;;;;;;;;;;;;;2056323;28;19910;-90
2022/11/23 02:29:16;;;;;;;;;;;;;;;;;;2048172;28;19911;-90
2022/11/23 02:30:17;;;;;;;;;;;;;;;;;;2057255;28;19910;-90
2022/11/23 02:31:17;;;;;;;;;;;;;;;;;;2056078;28;20521;-91
2022/11/23 02:32:21;;;;;;;;;;;;;;;;;;2056297;28;20012;-91
2022/11/23 02:33:22;;;;;;;;;;;;;;;;;;2064961;28;19977;-91
2022/11/23 02:34:23;;;;;;;;;;;;;;;;;;2055942;28;19917;-90
2022/11/23 02:35:23;;;;;;;;;;;;;;;;;;2048128;28;20045;-91
2022/11/23 02:36:29;;;;;;;;;;;;;;;;;;1687208;28;10556884;-90
2022/11/23 02:37:29;;;;;;;;;;;;;;;;;;2056869;28;19910;-91
2022/11/23 02:38:31;;;;;;;;;;;;;;;;;;2064766;28;19921;-91
2022/11/23 02:39:35;;;;;;;;;;;;;;;;;;2064994;28;19909;-90
2022/11/23 02:40:36;;;;;;;;;;;;;;;;;;2055871;28;19910;-90
2022/11/23 02:41:43;;;;;;;;;;;;;;;;;;2055867;28;19965;-90
2022/11/23 02:42:43;;;;;;;;;;;;;;;;;;2064751;28;19917;-90
2022/11/23 02:43:44;;;;;;;;;;;;;;;;;;2064563;28;19910;-90
2022/11/23 02:44:56;;;;;;;;;;;;;;;;;;2064625;28;19989;-90
2022/11/23 02:45:58;;;;;;;;;;;;;;;;;;2063846;28;19921;-91
2022/11/23 02:46:58;;;;;;;;;;;;;;;;;;2055862;28;20395;-91
2022/11/23 02:47:58;;;;;;;;;;;;;;;;;;2047924;28;19918;-90
2022/11/23 02:48:59;;;;;;;;;;;;;;;;;;2055919;28;20280;-90
2022/11/23 02:49:59;;;;;;;;;;;;;;;;;;1719786;28;10000810;-88
2022/11/23 02:50:59;;;;;;;;;;;;;;;;;;2055906;28;19914;-90
2022/11/23 02:52:00;;;;;;;;;;;;;;;;;;2047840;28;19922;-90
2022/11/23 02:53:00;;;;;;;;;;;;;;;;;;2055811;28;19964;-89
2022/11/23 02:54:00;;;;;;;;;;;;;;;;;;2055780;28;20215;-90
2022/11/23 02:55:01;;;;;;;;;;;;;;;;;;2058514;28;20350;-90
2022/11/23 02:56:01;;;;;;;;;;;;;;;;;;2055795;28;19945;-89
2022/11/23 02:57:01;;;;;;;;;;;;;;;;;;2047764;29;20346;-90
2022/11/23 02:58:02;;;;;;;;;;;;;;;;;;2047806;29;19937;-90
2022/11/23 02:59:03;;;;;;;;;;;;;;;;;;1709175;28;10406578;-90
2022/11/23 03:00:04;;;;;;;;;;;;;;;;;;2055689;28;19910;-90
2022/11/23 03:01:04;;;;;;;;;;;;;;;;;;2063905;28;19917;-89
2022/11/23 03:02:05;;;;;;;;;;;;;;;;;;2056706;28;19957;-90
2022/11/23 03:03:11;;;;;;;;;;;;;;;;;;1892359;28;10318569;-90
2022/11/23 03:04:12;;;;;;;;;;;;;;;;;;2056203;28;19933;-90
2022/11/23 03:05:12;;;;;;;;;;;;;;;;;;2056053;28;20447;-91
2022/11/23 03:06:12;;;;;;;;;;;;;;;;;;2055516;28;19921;-91
2022/11/23 03:07:13;;;;;;;;;;;;;;;;;;2047885;28;20077;-91
2022/11/23 03:08:13;;;;;;;;;;;;;;;;;;2048111;29;19914;-91
2022/11/23 03:09:13;;;;;;;;;;;;;;;;;;2056635;28;19910;-90
2022/11/23 03:10:14;;;;;;;;;;;;;;;;;;2059968;28;19910;-89
2022/11/23 03:11:15;;;;;;;;;;;;;;;;;;2072069;28;20486;-89
2022/11/23 03:12:15;;;;;;;;;;;;;;;;;;2063288;28;19938;-89
2022/11/23 03:13:15;;;;;;;;;;;;;;;;;;2052422;28;19910;-91
2022/11/23 03:14:16;;;;;;;;;;;;;;;;;;2056062;28;20344;-91
2022/11/23 03:15:16;;;;;;;;;;;;;;;;;;2056161;28;20403;-90
2022/11/23 03:16:18;;;;;;;;;;;;;;;;;;2056175;28;19997;-90
2022/11/23 03:17:19;;;;;;;;;;;;;;;;;;2055896;28;19910;-91
2022/11/23 03:18:22;;;;;;;;;;;;;;;;;;2056136;28;19916;-90
2022/11/23 03:19:22;;;;;;;;;;;;;;;;;;2060567;28;19910;-94
2022/11/23 03:20:22;;;;;;;;;;;;;;;;;;2055153;28;19957;-94
2022/11/23 03:21:23;;;;;;;;;;;;;;;;;;2050871;29;19911;-94
2022/11/23 03:22:27;;;;;;;;;;;;;;;;;;2057445;28;20405;-94
2022/11/23 03:23:27;;;;;;;;;;;;;;;;;;2055902;28;20049;-90
2022/11/23 03:24:27;;;;;;;;;;;;;;;;;;2055170;28;19917;-90
2022/11/23 03:25:28;;;;;;;;;;;;;;;;;;2055761;28;19916;-89
2022/11/23 03:26:28;;;;;;;;;;;;;;;;;;2055753;28;19950;-90
2022/11/23 03:27:31;;;;;;;;;;;;;;;;;;2055564;28;19910;-90
2022/11/23 03:28:31;;;;;;;;;;;;;;;;;;2055492;28;20409;-90
2022/11/23 03:29:32;;;;;;;;;;;;;;;;;;2055390;28;19910;-90
2022/11/23 03:30:32;;;;;;;;;;;;;;;;;;2064200;28;19949;-90
2022/11/23 03:31:33;;;;;;;;;;;;;;;;;;2055533;28;19910;-89
2022/11/23 03:32:33;;;;;;;;;;;;;;;;;;2047559;28;19957;-91
2022/11/23 03:33:34;;;;;;;;;;;;;;;;;;2047611;28;19952;-90
2022/11/23 03:34:34;;;;;;;;;;;;;;;;;;2055727;28;19914;-90
2022/11/23 03:35:34;;;;;;;;;;;;;;;;;;2064202;28;19910;-89
2022/11/23 03:36:34;;;;;;;;;;;;;;;;;;2064040;28;19960;-89
2022/11/23 03:37:35;;;;;;;;;;;;;;;;;;2064097;28;20373;-89
2022/11/23 03:38:35;;;;;;;;;;;;;;;;;;2055267;28;19929;-89
2022/11/23 03:39:35;;;;;;;;;;;;;;;;;;1712529;28;10001790;-89
2022/11/23 03:40:36;;;;;;;;;;;;;;;;;;2055347;28;19940;-89
2022/11/23 03:41:36;;;;;;;;;;;;;;;;;;2055591;28;20297;-90
2022/11/23 03:42:38;;;;;;;;;;;;;;;;;;2063266;28;19941;-89
2022/11/23 03:43:38;;;;;;;;;;;;;;;;;;2055109;28;19978;-89
2022/11/23 03:44:38;;;;;;;;;;;;;;;;;;2054998;28;19964;-89
2022/11/23 03:45:39;;;;;;;;;;;;;;;;;;2063332;28;20265;-89
2022/11/23 03:46:40;;;;;;;;;;;;;;;;;;2054985;28;19910;-89
2022/11/23 03:47:40;;;;;;;;;;;;;;;;;;2055309;28;19914;-88
2022/11/23 03:48:40;;;;;;;;;;;;;;;;;;2055154;28;19910;-90
2022/11/23 03:49:40;;;;;;;;;;;;;;;;;;2055169;28;20306;-90
2022/11/23 03:50:41;;;;;;;;;;;;;;;;;;2062832;28;19920;-90
2022/11/23 03:51:41;;;;;;;;;;;;;;;;;;2055431;28;20404;-91
2022/11/23 03:52:41;;;;;;;;;;;;;;;;;;2047033;29;19926;-91
2022/11/23 03:53:42;;;;;;;;;;;;;;;;;;2054954;28;19910;-89
2022/11/23 03:54:42;;;;;;;;;;;;;;;;;;2054912;28;19916;-88
2022/11/23 03:55:44;;;;;;;;;;;;;;;;;;2055161;28;20218;-89
2022/11/23 03:56:45;;;;;;;;;;;;;;;;;;2063383;28;20397;-90
2022/11/23 03:57:46;;;;;;;;;;;;;;;;;;2055152;28;19910;-90
2022/11/23 03:58:47;;;;;;;;;;;;;;;;;;2047905;28;20364;-89
2022/11/23 03:59:47;;;;;;;;;;;;;;;;;;2055980;28;19910;-88
2022/11/23 04:00:47;;;;;;;;;;;;;;;;;;2056872;28;20269;-90
2022/11/23 04:01:47;;;;;;;;;;;;;;;;;;2055572;28;19916;-88
2022/11/23 04:02:48;;;;;;;;;;;;;;;;;;2055470;28;19922;-89
2022/11/23 04:03:48;;;;;;;;;;;;;;;;;;2065929;28;19949;-89
2022/11/23 04:04:48;;;;;;;;;;;;;;;;;;2055101;28;19914;-89
2022/11/23 04:05:49;;;;;;;;;;;;;;;;;;2056800;28;19957;-95
2022/11/23 04:06:49;;;;;;;;;;;;;;;;;;2058690;28;19910;-93
2022/11/23 04:07:49;;;;;;;;;;;;;;;;;;2051343;29;19954;-95
2022/11/23 04:08:50;;;;;;;;;;;;;;;;;;1699519;29;10135408;-94
2022/11/23 04:09:54;;;;;;;;;;;;;;;;;;2061023;28;19961;-92
2022/11/23 04:10:56;;;;;;;;;;;;;;;;;;2055312;28;19918;-93
2022/11/23 04:11:56;;;;;;;;;;;;;;;;;;2053510;28;19966;-94
2022/11/23 04:12:57;;;;;;;;;;;;;;;;;;2057009;28;20392;-94
2022/11/23 04:13:57;;;;;;;;;;;;;;;;;;2057203;28;19920;-94
2022/11/23 04:14:58;;;;;;;;;;;;;;;;;;2049090;28;19914;-94
2022/11/23 04:15:59;;;;;;;;;;;;;;;;;;2049482;28;20259;-94
2022/11/23 04:17:01;;;;;;;;;;;;;;;;;;2050076;28;20071;-93
2022/11/23 04:18:01;;;;;;;;;;;;;;;;;;2057750;28;19910;-94
2022/11/23 04:19:02;;;;;;;;;;;;;;;;;;2058071;28;19942;-93
2022/11/23 04:20:04;;;;;;;;;;;;;;;;;;2059455;28;19925;-93
2022/11/23 04:21:05;;;;;;;;;;;;;;;;;;2055198;28;19910;-89
2022/11/23 04:22:05;;;;;;;;;;;;;;;;;;2055382;28;19917;-89
2022/11/23 04:23:06;;;;;;;;;;;;;;;;;;2055676;28;19957;-89
2022/11/23 04:24:06;;;;;;;;;;;;;;;;;;2055300;28;19982;-89
2022/11/23 04:25:07;;;;;;;;;;;;;;;;;;2055598;28;19910;-90
2022/11/23 04:26:07;;;;;;;;;;;;;;;;;;2063964;28;20334;-89
2022/11/23 04:27:07;;;;;;;;;;;;;;;;;;2055843;28;20290;-90
2022/11/23 04:28:08;;;;;;;;;;;;;;;;;;2055444;28;20407;-89
2022/11/23 04:29:08;;;;;;;;;;;;;;;;;;2064130;28;20416;-89
2022/11/23 04:30:08;;;;;;;;;;;;;;;;;;2056383;28;19917;-89
2022/11/23 04:31:10;;;;;;;;;;;;;;;;;;2055612;28;19914;-89
2022/11/23 04:32:10;;;;;;;;;;;;;;;;;;2056946;28;19921;-91
2022/11/23 04:33:11;;;;;;;;;;;;;;;;;;2058803;28;19949;-88
2022/11/23 04:34:11;;;;;;;;;;;;;;;;;;2055219;28;19910;-89
2022/11/23 04:35:12;;;;;;;;;;;;;;;;;;2055105;28;19910;-89
2022/11/23 04:36:12;;;;;;;;;;;;;;;;;;2066735;28;19917;-88
2022/11/23 04:37:12;;;;;;;;;;;;;;;;;;2065610;28;19909;-88
2022/11/23 04:38:12;;;;;;;;;;;;;;;;;;1722029;28;10001300;-89
2022/11/23 04:39:13;;;;;;;;;;;;;;;;;;2057957;28;20000;-89
2022/11/23 04:40:13;;;;;;;;;;;;;;;;;;2057226;28;20336;-90
2022/11/23 04:41:14;;;;;;;;;;;;;;;;;;2056558;28;19989;-89
2022/11/23 04:42:14;;;;;;;;;;;;;;;;;;2056739;28;20123;-89
2022/11/23 04:43:14;;;;;;;;;;;;;;;;;;2064763;28;19917;-89
2022/11/23 04:44:14;;;;;;;;;;;;;;;;;;2064895;28;20004;-89
2022/11/23 04:45:15;;;;;;;;;;;;;;;;;;2056655;28;19981;-89
2022/11/23 04:46:15;;;;;;;;;;;;;;;;;;2048403;28;20348;-89
2022/11/23 04:47:15;;;;;;;;;;;;;;;;;;2056621;28;20149;-89
2022/11/23 04:48:15;;;;;;;;;;;;;;;;;;2065450;28;20031;-89
2022/11/23 04:49:16;;;;;;;;;;;;;;;;;;2057490;28;19918;-89
2022/11/23 04:50:16;;;;;;;;;;;;;;;;;;2056922;28;19980;-89
2022/11/23 04:51:16;;;;;;;;;;;;;;;;;;2056508;28;19915;-89
2022/11/23 04:52:17;;;;;;;;;;;;;;;;;;2056804;28;19921;-89
2022/11/23 04:53:17;;;;;;;;;;;;;;;;;;2064635;28;19909;-89
2022/11/23 04:54:17;;;;;;;;;;;;;;;;;;2056580;28;19995;-89
2022/11/23 04:55:17;;;;;;;;;;;;;;;;;;2048633;28;19910;-89
2022/11/23 04:56:18;;;;;;;;;;;;;;;;;;2056562;28;20391;-89
2022/11/23 04:57:18;;;;;;;;;;;;;;;;;;2056132;28;19910;-89
2022/11/23 04:58:18;;;;;;;;;;;;;;;;;;2048161;28;19981;-89
2022/11/23 04:59:19;;;;;;;;;;;;;;;;;;2056381;28;20377;-89
2022/11/23 05:00:19;;;;;;;;;;;;;;;;;;2064352;28;20372;-89
2022/11/23 05:01:19;;;;;;;;;;;;;;;;;;2064503;28;19917;-88
2022/11/23 05:02:19;;;;;;;;;;;;;;;;;;2065150;28;19917;-89
2022/11/23 05:03:20;;;;;;;;;;;;;;;;;;2065202;28;19935;-89
2022/11/23 05:04:25;;;;;;;;;;;;;;;;;;1885356;28;10246183;-87
2022/11/23 05:05:28;;;;;;;;;;;;;;;;;;1723078;28;10001801;-88
2022/11/23 05:06:28;;;;;;;;;;;;;;;;;;2071530;28;19905;-88
2022/11/23 05:07:28;;;;;;;;;;;;;;;;;;2060190;28;19910;-87
2022/11/23 05:08:29;;;;;;;;;;;;;;;;;;2060353;28;19988;-89
2022/11/23 05:09:29;;;;;;;;;;;;;;;;;;2057293;28;19949;-89
2022/11/23 05:10:29;;;;;;;;;;;;;;;;;;2056455;28;19914;-88
2022/11/23 05:11:30;;;;;;;;;;;;;;;;;;2048464;28;20017;-89
2022/11/23 05:12:30;;;;;;;;;;;;;;;;;;2056717;28;20365;-89
2022/11/23 05:13:31;;;;;;;;;;;;;;;;;;2065069;28;20020;-89
2022/11/23 05:14:31;;;;;;;;;;;;;;;;;;2065449;28;20355;-88
2022/11/23 05:15:31;;;;;;;;;;;;;;;;;;2065303;28;19917;-88
2022/11/23 05:16:32;;;;;;;;;;;;;;;;;;2065048;28;19909;-89
2022/11/23 05:17:33;;;;;;;;;;;;;;;;;;2056698;28;19910;-89
2022/11/23 05:18:33;;;;;;;;;;;;;;;;;;2056500;28;20284;-88
2022/11/23 05:19:33;;;;;;;;;;;;;;;;;;2065390;28;19909;-89
2022/11/23 05:20:33;;;;;;;;;;;;;;;;;;2064084;28;20107;-87
2022/11/23 05:21:34;;;;;;;;;;;;;;;;;;2056556;28;19917;-89
2022/11/23 05:22:34;;;;;;;;;;;;;;;;;;2057006;28;19981;-89
2022/11/23 05:23:34;;;;;;;;;;;;;;;;;;2056291;28;20353;-87
2022/11/23 05:24:35;;;;;;;;;;;;;;;;;;2056855;28;20380;-87
2022/11/23 05:25:35;;;;;;;;;;;;;;;;;;2064732;28;19937;-88
2022/11/23 05:26:35;;;;;;;;;;;;;;;;;;2056633;28;19948;-87
2022/11/23 05:27:35;;;;;;;;;;;;;;;;;;2048527;29;19993;-88
2022/11/23 05:28:36;;;;;;;;;;;;;;;;;;2056587;28;20380;-88
2022/11/23 05:29:36;;;;;;;;;;;;;;;;;;2056093;28;19913;-87
2022/11/23 05:30:37;;;;;;;;;;;;;;;;;;2048412;29;19954;-90
2022/11/23 05:31:37;;;;;;;;;;;;;;;;;;2048410;29;19997;-89
2022/11/23 05:32:37;;;;;;;;;;;;;;;;;;2056332;28;20385;-89
2022/11/23 05:33:38;;;;;;;;;;;;;;;;;;2056342;28;20369;-89
2022/11/23 05:34:38;;;;;;;;;;;;;;;;;;2056181;28;19910;-89
2022/11/23 05:35:38;;;;;;;;;;;;;;;;;;2056458;28;19917;-90
2022/11/23 05:36:39;;;;;;;;;;;;;;;;;;2064999;28;19913;-88
2022/11/23 05:37:40;;;;;;;;;;;;;;;;;;2065322;28;20482;-89
2022/11/23 05:38:40;;;;;;;;;;;;;;;;;;2065329;28;20319;-90
2022/11/23 05:39:41;;;;;;;;;;;;;;;;;;2056228;28;19989;-89
2022/11/23 05:40:41;;;;;;;;;;;;;;;;;;2056344;28;19918;-90
2022/11/23 05:41:41;;;;;;;;;;;;;;;;;;2056459;28;20390;-89
2022/11/23 05:42:43;;;;;;;;;;;;;;;;;;2056329;28;19910;-89
2022/11/23 05:43:43;;;;;;;;;;;;;;;;;;2056370;28;20306;-89
2022/11/23 05:44:43;;;;;;;;;;;;;;;;;;2048763;29;19965;-94
2022/11/23 05:45:47;;;;;;;;;;;;;;;;;;2050313;28;19937;-94
2022/11/23 05:46:47;;;;;;;;;;;;;;;;;;2057289;28;19917;-95
2022/11/23 05:47:51;;;;;;;;;;;;;;;;;;2049535;28;19953;-94
2022/11/23 05:48:51;;;;;;;;;;;;;;;;;;2058260;28;19910;-94
2022/11/23 05:49:52;;;;;;;;;;;;;;;;;;2058108;28;20300;-93
2022/11/23 05:50:52;;;;;;;;;;;;;;;;;;2058078;28;19953;-96
2022/11/23 05:51:53;;;;;;;;;;;;;;;;;;2067874;28;19921;-96
2022/11/23 05:52:54;;;;;;;;;;;;;;;;;;2058008;28;20001;-95
2022/11/23 05:53:57;;;;;;;;;;;;;;;;;;2050024;28;19914;-95
2022/11/23 05:55:00;;;;;;;;;;;;;;;;;;2050616;28;19957;-94
2022/11/23 05:56:01;;;;;;;;;;;;;;;;;;2048236;28;20297;-89
2022/11/23 05:57:01;;;;;;;;;;;;;;;;;;2056055;28;19910;-89
2022/11/23 05:58:02;;;;;;;;;;;;;;;;;;2055828;28;19914;-90
2022/11/23 05:59:04;;;;;;;;;;;;;;;;;;2048147;28;20013;-89
2022/11/23 06:00:04;;;;;;;;;;;;;;;;;;2047984;28;19917;-90
2022/11/23 06:01:05;;;;;;;;;;;;;;;;;;2047915;28;19961;-90
2022/11/23 06:02:05;;;;;;;;;;;;;;;;;;2055934;28;20396;-91
2022/11/23 06:03:05;;;;;;;;;;;;;;;;;;2064453;28;19949;-90
2022/11/23 06:04:06;;;;;;;;;;;;;;;;;;2055313;28;19929;-90
2022/11/23 06:05:07;;;;;;;;;;;;;;;;;;2047298;28;20039;-89
2022/11/23 06:06:07;;;;;;;;;;;;;;;;;;2055656;28;20057;-90
2022/11/23 06:07:07;;;;;;;;;;;;;;;;;;2055454;28;20357;-90
2022/11/23 06:08:08;;;;;;;;;;;;;;;;;;2047247;28;20009;-90
2022/11/23 06:09:08;;;;;;;;;;;;;;;;;;2047247;29;19922;-89
2022/11/23 06:10:10;;;;;;;;;;;;;;;;;;2055278;28;19913;-90
2022/11/23 06:11:10;;;;;;;;;;;;;;;;;;2055207;28;19994;-90
2022/11/23 06:12:10;;;;;;;;;;;;;;;;;;2047246;29;20323;-90
2022/11/23 06:13:10;;;;;;;;;;;;;;;;;;2055389;28;19988;-90
2022/11/23 06:14:11;;;;;;;;;;;;;;;;;;2064181;28;19979;-90
2022/11/23 06:15:11;;;;;;;;;;;;;;;;;;2064058;28;19910;-89
2022/11/23 06:16:11;;;;;;;;;;;;;;;;;;2063612;28;20388;-90
2022/11/23 06:17:12;;;;;;;;;;;;;;;;;;2055671;28;19989;-91
2022/11/23 06:18:12;;;;;;;;;;;;;;;;;;2056508;28;19910;-90
2022/11/23 06:19:12;;;;;;;;;;;;;;;;;;2064222;28;19975;-91
2022/11/23 06:20:16;;;;;;;;;;;;;;;;;;2055432;28;19916;-91
2022/11/23 06:21:16;;;;;;;;;;;;;;;;;;2056351;28;19921;-91
2022/11/23 06:22:27;;;;;;;;;;;;;;;;;;2064413;28;19910;-91
2022/11/23 06:23:36;;;;;;;;;;;;;;;;;;2064401;28;19967;-91
2022/11/23 06:24:37;;;;;;;;;;;;;;;;;;2056466;28;19960;-91
2022/11/23 06:25:38;;;;;;;;;;;;;;;;;;1706289;28;10001195;-90
2022/11/23 06:26:38;;;;;;;;;;;;;;;;;;2048379;29;19906;-90
2022/11/23 06:27:38;;;;;;;;;;;;;;;;;;1706669;28;10049122;-90
2022/11/23 06:28:38;;;;;;;;;;;;;;;;;;2055903;28;19949;-90
2022/11/23 06:29:39;;;;;;;;;;;;;;;;;;2048231;28;19949;-90
2022/11/23 06:30:39;;;;;;;;;;;;;;;;;;2056152;28;19914;-89
2022/11/23 06:31:39;;;;;;;;;;;;;;;;;;2056006;28;19909;-90
2022/11/23 06:32:40;;;;;;;;;;;;;;;;;;2056245;28;19980;-90
2022/11/23 06:33:40;;;;;;;;;;;;;;;;;;2064567;28;20000;-90
2022/11/23 06:34:40;;;;;;;;;;;;;;;;;;2064114;28;19910;-90
2022/11/23 06:35:41;;;;;;;;;;;;;;;;;;2055700;28;20008;-90
2022/11/23 06:36:42;;;;;;;;;;;;;;;;;;2056090;28;19914;-91
2022/11/23 06:37:42;;;;;;;;;;;;;;;;;;2055984;28;20407;-91
2022/11/23 06:38:54;;;;;;;;;;;;;;;;;;2047828;29;19910;-91
2022/11/23 06:39:54;;;;;;;;;;;;;;;;;;2048984;28;19918;-91
2022/11/23 06:40:58;;;;;;;;;;;;;;;;;;2055970;28;20433;-91
2022/11/23 06:42:01;;;;;;;;;;;;;;;;;;2063857;28;19959;-91
2022/11/23 06:43:07;;;;;;;;;;;;;;;;;;2064289;28;19927;-91
2022/11/23 06:44:08;;;;;;;;;;;;;;;;;;2055458;28;19910;-90
2022/11/23 06:45:08;;;;;;;;;;;;;;;;;;2056200;28;19955;-90
2022/11/23 06:46:09;;;;;;;;;;;;;;;;;;2055957;28;19910;-90
2022/11/23 06:47:12;;;;;;;;;;;;;;;;;;2055787;28;19910;-90
2022/11/23 06:48:18;;;;;;;;;;;;;;;;;;2064273;28;19909;-90
2022/11/23 06:49:20;;;;;;;;;;;;;;;;;;2064732;28;19996;-90
2022/11/23 06:50:21;;;;;;;;;;;;;;;;;;2056141;28;19937;-90
2022/11/23 06:51:21;;;;;;;;;;;;;;;;;;2047964;28;20365;-90
2022/11/23 06:52:25;;;;;;;;;;;;;;;;;;2047941;29;19914;-89
2022/11/23 06:53:26;;;;;;;;;;;;;;;;;;2056098;28;19914;-89
2022/11/23 06:54:27;;;;;;;;;;;;;;;;;;2055713;28;19941;-89
2022/11/23 06:55:27;;;;;;;;;;;;;;;;;;2055585;28;20296;-89
2022/11/23 06:56:29;;;;;;;;;;;;;;;;;;2063736;28;19909;-88